sensor_id;sensor_type;location;lat;lon;timestamp;P1;durP1;ratioP1;P2;durP2;ratioP2
77287;SDS011;66345;42.694;23.346;2024-01-07T00:00:00;33.28;;;15.95;;
77287;SDS011;66345;42.694;23.346;2024-01-07T00:02:28;32.08;;;16.08;;
77287;SDS011;66345;42.694;23.346;2024-01-07T00:04:55;32.20;;;16.30;;
77287;SDS011;66345;42.694;23.346;2024-01-07T00:07:21;32.67;;;16.00;;
77287;SDS011;66345;42.694;23.346;2024-01-07T00:09:46;36.13;;;16.50;;
77287;SDS011;66345;42.694;23.346;2024-01-07T00:12:12;29.60;;;16.10;;
77287;SDS011;66345;42.694;23.346;2024-01-07T00:14:38;31.80;;;16.23;;
77287;SDS011;66345;42.694;23.346;2024-01-07T00:17:03;30.50;;;15.47;;
77287;SDS011;66345;42.694;23.346;2024-01-07T00:19:29;33.60;;;16.93;;
77287;SDS011;66345;42.694;23.346;2024-01-07T00:21:56;32.88;;;15.50;;
77287;SDS011;66345;42.694;23.346;2024-01-07T00:24:22;29.50;;;15.38;;
77287;SDS011;66345;42.694;23.346;2024-01-07T00:26:50;30.13;;;15.90;;
77287;SDS011;66345;42.694;23.346;2024-01-07T00:29:16;36.42;;;15.65;;
77287;SDS011;66345;42.694;23.346;2024-01-07T00:31:41;30.47;;;15.20;;
77287;SDS011;66345;42.694;23.346;2024-01-07T00:34:07;41.30;;;14.93;;
77287;SDS011;66345;42.694;23.346;2024-01-07T00:36:32;31.73;;;14.60;;
77287;SDS011;66345;42.694;23.346;2024-01-07T00:38:58;30.43;;;14.67;;
77287;SDS011;66345;42.694;23.346;2024-01-07T00:41:23;28.93;;;14.50;;
77287;SDS011;66345;42.694;23.346;2024-01-07T00:43:49;29.48;;;14.60;;
77287;SDS011;66345;42.694;23.346;2024-01-07T00:46:15;29.83;;;14.33;;
77287;SDS011;66345;42.694;23.346;2024-01-07T00:48:40;32.25;;;14.52;;
77287;SDS011;66345;42.694;23.346;2024-01-07T00:51:06;32.17;;;15.40;;
77287;SDS011;66345;42.694;23.346;2024-01-07T00:53:31;30.13;;;14.23;;
77287;SDS011;66345;42.694;23.346;2024-01-07T00:55:57;31.27;;;14.05;;
77287;SDS011;66345;42.694;23.346;2024-01-07T00:58:22;29.77;;;14.27;;
77287;SDS011;66345;42.694;23.346;2024-01-07T01:00:48;25.90;;;13.13;;
77287;SDS011;66345;42.694;23.346;2024-01-07T01:03:14;27.25;;;13.45;;
77287;SDS011;66345;42.694;23.346;2024-01-07T01:05:39;25.87;;;13.33;;
77287;SDS011;66345;42.694;23.346;2024-01-07T01:08:05;33.08;;;14.43;;
77287;SDS011;66345;42.694;23.346;2024-01-07T01:10:30;32.07;;;14.13;;
77287;SDS011;66345;42.694;23.346;2024-01-07T01:12:56;27.03;;;13.17;;
77287;SDS011;66345;42.694;23.346;2024-01-07T01:15:21;25.42;;;13.65;;
77287;SDS011;66345;42.694;23.346;2024-01-07T01:17:47;29.17;;;13.30;;
77287;SDS011;66345;42.694;23.346;2024-01-07T01:20:13;27.93;;;13.20;;
77287;SDS011;66345;42.694;23.346;2024-01-07T01:22:38;25.75;;;12.57;;
77287;SDS011;66345;42.694;23.346;2024-01-07T01:25:04;27.03;;;12.60;;
77287;SDS011;66345;42.694;23.346;2024-01-07T01:27:30;28.40;;;12.95;;
77287;SDS011;66345;42.694;23.346;2024-01-07T01:29:56;33.83;;;13.32;;
77287;SDS011;66345;42.694;23.346;2024-01-07T01:32:21;29.45;;;13.50;;
77287;SDS011;66345;42.694;23.346;2024-01-07T01:34:47;28.30;;;14.17;;
77287;SDS011;66345;42.694;23.346;2024-01-07T01:37:13;29.52;;;13.98;;
77287;SDS011;66345;42.694;23.346;2024-01-07T01:39:41;26.23;;;13.30;;
77287;SDS011;66345;42.694;23.346;2024-01-07T01:42:07;26.95;;;12.77;;
77287;SDS011;66345;42.694;23.346;2024-01-07T01:44:33;29.97;;;13.77;;
77287;SDS011;66345;42.694;23.346;2024-01-07T01:46:59;28.40;;;13.68;;
77287;SDS011;66345;42.694;23.346;2024-01-07T01:49:26;27.52;;;13.80;;
77287;SDS011;66345;42.694;23.346;2024-01-07T01:51:52;25.90;;;12.30;;
77287;SDS011;66345;42.694;23.346;2024-01-07T01:54:20;28.83;;;13.67;;
77287;SDS011;66345;42.694;23.346;2024-01-07T01:56:47;27.05;;;13.18;;
77287;SDS011;66345;42.694;23.346;2024-01-07T01:59:22;26.25;;;13.50;;
77287;SDS011;66345;42.694;23.346;2024-01-07T02:01:48;26.50;;;12.77;;
77287;SDS011;66345;42.694;23.346;2024-01-07T02:04:14;26.77;;;12.73;;
77287;SDS011;66345;42.694;23.346;2024-01-07T02:06:41;27.48;;;12.77;;
77287;SDS011;66345;42.694;23.346;2024-01-07T02:09:06;27.50;;;12.85;;
77287;SDS011;66345;42.694;23.346;2024-01-07T02:11:32;25.63;;;12.82;;
77287;SDS011;66345;42.694;23.346;2024-01-07T02:13:57;22.63;;;12.67;;
77287;SDS011;66345;42.694;23.346;2024-01-07T02:16:23;27.63;;;13.40;;
77287;SDS011;66345;42.694;23.346;2024-01-07T02:18:49;26.00;;;12.43;;
77287;SDS011;66345;42.694;23.346;2024-01-07T02:21:15;29.70;;;13.02;;
77287;SDS011;66345;42.694;23.346;2024-01-07T02:23:41;24.83;;;13.35;;
77287;SDS011;66345;42.694;23.346;2024-01-07T02:26:06;25.95;;;11.93;;
77287;SDS011;66345;42.694;23.346;2024-01-07T02:28:33;26.20;;;12.45;;
77287;SDS011;66345;42.694;23.346;2024-01-07T02:30:59;27.33;;;12.57;;
77287;SDS011;66345;42.694;23.346;2024-01-07T02:33:25;28.80;;;13.93;;
77287;SDS011;66345;42.694;23.346;2024-01-07T02:35:50;25.98;;;13.10;;
77287;SDS011;66345;42.694;23.346;2024-01-07T02:38:16;24.45;;;13.18;;
77287;SDS011;66345;42.694;23.346;2024-01-07T02:40:41;23.97;;;12.20;;
77287;SDS011;66345;42.694;23.346;2024-01-07T02:43:07;31.10;;;14.35;;
77287;SDS011;66345;42.694;23.346;2024-01-07T02:45:33;29.98;;;14.70;;
77287;SDS011;66345;42.694;23.346;2024-01-07T02:47:59;33.33;;;13.80;;
77287;SDS011;66345;42.694;23.346;2024-01-07T02:50:24;25.13;;;13.17;;
77287;SDS011;66345;42.694;23.346;2024-01-07T02:52:50;24.83;;;13.37;;
77287;SDS011;66345;42.694;23.346;2024-01-07T02:55:15;25.77;;;12.15;;
77287;SDS011;66345;42.694;23.346;2024-01-07T02:57:41;27.27;;;12.90;;
77287;SDS011;66345;42.694;23.346;2024-01-07T03:00:07;28.58;;;12.70;;
77287;SDS011;66345;42.694;23.346;2024-01-07T03:02:32;25.90;;;13.53;;
77287;SDS011;66345;42.694;23.346;2024-01-07T03:04:58;25.55;;;12.82;;
77287;SDS011;66345;42.694;23.346;2024-01-07T03:07:24;26.20;;;13.03;;
77287;SDS011;66345;42.694;23.346;2024-01-07T03:09:50;29.02;;;12.68;;
77287;SDS011;66345;42.694;23.346;2024-01-07T03:12:16;25.17;;;12.03;;
77287;SDS011;66345;42.694;23.346;2024-01-07T03:14:41;27.40;;;12.77;;
77287;SDS011;66345;42.694;23.346;2024-01-07T03:17:07;23.00;;;11.60;;
77287;SDS011;66345;42.694;23.346;2024-01-07T03:19:33;24.95;;;12.07;;
77287;SDS011;66345;42.694;23.346;2024-01-07T03:21:58;21.80;;;11.90;;
77287;SDS011;66345;42.694;23.346;2024-01-07T03:24:24;23.75;;;11.60;;
77287;SDS011;66345;42.694;23.346;2024-01-07T03:26:49;24.80;;;11.93;;
77287;SDS011;66345;42.694;23.346;2024-01-07T03:29:15;24.87;;;12.40;;
77287;SDS011;66345;42.694;23.346;2024-01-07T03:31:41;23.38;;;12.05;;
77287;SDS011;66345;42.694;23.346;2024-01-07T03:34:06;24.57;;;12.50;;
77287;SDS011;66345;42.694;23.346;2024-01-07T03:36:32;24.37;;;10.47;;
77287;SDS011;66345;42.694;23.346;2024-01-07T03:38:57;21.13;;;10.70;;
77287;SDS011;66345;42.694;23.346;2024-01-07T03:41:23;22.03;;;10.53;;
77287;SDS011;66345;42.694;23.346;2024-01-07T03:43:49;24.13;;;10.73;;
77287;SDS011;66345;42.694;23.346;2024-01-07T03:46:14;19.17;;;10.02;;
77287;SDS011;66345;42.694;23.346;2024-01-07T03:48:41;20.67;;;11.25;;
77287;SDS011;66345;42.694;23.346;2024-01-07T03:51:07;24.48;;;10.68;;
77287;SDS011;66345;42.694;23.346;2024-01-07T03:53:33;20.67;;;10.43;;
77287;SDS011;66345;42.694;23.346;2024-01-07T03:55:58;21.55;;;10.40;;
77287;SDS011;66345;42.694;23.346;2024-01-07T03:58:24;17.37;;;9.33;;
77287;SDS011;66345;42.694;23.346;2024-01-07T04:00:49;17.80;;;8.27;;
77287;SDS011;66345;42.694;23.346;2024-01-07T04:03:15;18.92;;;8.63;;
77287;SDS011;66345;42.694;23.346;2024-01-07T04:05:40;18.47;;;8.43;;
77287;SDS011;66345;42.694;23.346;2024-01-07T04:08:09;19.40;;;8.87;;
77287;SDS011;66345;42.694;23.346;2024-01-07T04:10:34;16.15;;;7.97;;
77287;SDS011;66345;42.694;23.346;2024-01-07T04:13:00;19.77;;;7.37;;
77287;SDS011;66345;42.694;23.346;2024-01-07T04:15:26;15.50;;;7.45;;
77287;SDS011;66345;42.694;23.346;2024-01-07T04:17:51;15.27;;;7.70;;
77287;SDS011;66345;42.694;23.346;2024-01-07T04:20:17;16.40;;;7.70;;
77287;SDS011;66345;42.694;23.346;2024-01-07T04:22:42;17.85;;;7.78;;
77287;SDS011;66345;42.694;23.346;2024-01-07T04:25:08;21.77;;;8.20;;
77287;SDS011;66345;42.694;23.346;2024-01-07T04:27:37;13.05;;;6.45;;
77287;SDS011;66345;42.694;23.346;2024-01-07T04:30:03;10.43;;;5.40;;
77287;SDS011;66345;42.694;23.346;2024-01-07T04:32:30;13.32;;;6.13;;
77287;SDS011;66345;42.694;23.346;2024-01-07T04:34:55;13.10;;;6.35;;
77287;SDS011;66345;42.694;23.346;2024-01-07T04:37:22;13.73;;;6.37;;
77287;SDS011;66345;42.694;23.346;2024-01-07T04:39:48;12.38;;;6.15;;
77287;SDS011;66345;42.694;23.346;2024-01-07T04:42:14;14.07;;;6.53;;
77287;SDS011;66345;42.694;23.346;2024-01-07T04:44:40;14.48;;;6.43;;
77287;SDS011;66345;42.694;23.346;2024-01-07T04:47:22;11.60;;;5.40;;
77287;SDS011;66345;42.694;23.346;2024-01-07T04:49:48;9.98;;;5.25;;
77287;SDS011;66345;42.694;23.346;2024-01-07T04:52:14;12.97;;;5.13;;
77287;SDS011;66345;42.694;23.346;2024-01-07T04:54:39;16.77;;;8.40;;
77287;SDS011;66345;42.694;23.346;2024-01-07T04:57:05;15.32;;;7.35;;
77287;SDS011;66345;42.694;23.346;2024-01-07T04:59:30;18.20;;;8.53;;
77287;SDS011;66345;42.694;23.346;2024-01-07T05:01:56;19.73;;;8.70;;
77287;SDS011;66345;42.694;23.346;2024-01-07T05:04:24;20.52;;;9.82;;
77287;SDS011;66345;42.694;23.346;2024-01-07T05:06:49;21.00;;;9.40;;
77287;SDS011;66345;42.694;23.346;2024-01-07T05:09:15;19.05;;;8.73;;
77287;SDS011;66345;42.694;23.346;2024-01-07T05:11:42;20.97;;;11.23;;
77287;SDS011;66345;42.694;23.346;2024-01-07T05:14:08;20.35;;;9.98;;
77287;SDS011;66345;42.694;23.346;2024-01-07T05:16:33;18.03;;;9.67;;
77287;SDS011;66345;42.694;23.346;2024-01-07T05:18:59;23.43;;;11.00;;
77287;SDS011;66345;42.694;23.346;2024-01-07T05:21:24;18.00;;;9.95;;
77287;SDS011;66345;42.694;23.346;2024-01-07T05:23:50;20.50;;;10.00;;
77287;SDS011;66345;42.694;23.346;2024-01-07T05:26:15;18.87;;;9.70;;
77287;SDS011;66345;42.694;23.346;2024-01-07T05:28:41;18.85;;;9.60;;
77287;SDS011;66345;42.694;23.346;2024-01-07T05:31:13;18.37;;;10.37;;
77287;SDS011;66345;42.694;23.346;2024-01-07T05:33:45;21.05;;;10.18;;
77287;SDS011;66345;42.694;23.346;2024-01-07T05:36:14;18.30;;;10.03;;
77287;SDS011;66345;42.694;23.346;2024-01-07T05:38:42;17.88;;;10.20;;
77287;SDS011;66345;42.694;23.346;2024-01-07T05:41:08;17.88;;;8.77;;
77287;SDS011;66345;42.694;23.346;2024-01-07T05:43:35;19.67;;;9.33;;
77287;SDS011;66345;42.694;23.346;2024-01-07T05:46:01;20.25;;;9.77;;
77287;SDS011;66345;42.694;23.346;2024-01-07T05:48:26;17.67;;;9.87;;
77287;SDS011;66345;42.694;23.346;2024-01-07T05:50:52;16.77;;;9.32;;
77287;SDS011;66345;42.694;23.346;2024-01-07T05:53:17;20.40;;;9.97;;
77287;SDS011;66345;42.694;23.346;2024-01-07T05:55:43;19.70;;;9.20;;
77287;SDS011;66345;42.694;23.346;2024-01-07T05:58:08;17.52;;;9.05;;
77287;SDS011;66345;42.694;23.346;2024-01-07T06:00:34;15.20;;;7.77;;
77287;SDS011;66345;42.694;23.346;2024-01-07T06:03:00;14.83;;;7.07;;
77287;SDS011;66345;42.694;23.346;2024-01-07T06:05:26;12.13;;;6.60;;
77287;SDS011;66345;42.694;23.346;2024-01-07T06:07:51;17.35;;;7.22;;
77287;SDS011;66345;42.694;23.346;2024-01-07T06:10:17;14.73;;;6.77;;
77287;SDS011;66345;42.694;23.346;2024-01-07T06:12:42;14.60;;;7.00;;
77287;SDS011;66345;42.694;23.346;2024-01-07T06:15:08;14.82;;;6.72;;
77287;SDS011;66345;42.694;23.346;2024-01-07T06:17:34;14.07;;;6.80;;
77287;SDS011;66345;42.694;23.346;2024-01-07T06:19:59;10.98;;;6.32;;
77287;SDS011;66345;42.694;23.346;2024-01-07T06:22:25;12.63;;;6.30;;
77287;SDS011;66345;42.694;23.346;2024-01-07T06:24:50;18.30;;;8.23;;
77287;SDS011;66345;42.694;23.346;2024-01-07T06:27:16;15.37;;;7.40;;
77287;SDS011;66345;42.694;23.346;2024-01-07T06:29:41;18.00;;;7.03;;
77287;SDS011;66345;42.694;23.346;2024-01-07T06:32:07;14.03;;;7.70;;
77287;SDS011;66345;42.694;23.346;2024-01-07T06:34:34;15.27;;;7.72;;
77287;SDS011;66345;42.694;23.346;2024-01-07T06:37:00;16.10;;;8.03;;
77287;SDS011;66345;42.694;23.346;2024-01-07T06:39:26;14.18;;;7.45;;
77287;SDS011;66345;42.694;23.346;2024-01-07T06:41:54;18.43;;;8.30;;
77287;SDS011;66345;42.694;23.346;2024-01-07T06:44:20;15.25;;;7.85;;
77287;SDS011;66345;42.694;23.346;2024-01-07T06:46:45;14.73;;;7.70;;
77287;SDS011;66345;42.694;23.346;2024-01-07T06:49:11;13.85;;;7.15;;
77287;SDS011;66345;42.694;23.346;2024-01-07T06:51:37;13.40;;;7.23;;
77287;SDS011;66345;42.694;23.346;2024-01-07T06:54:03;16.23;;;7.32;;
77287;SDS011;66345;42.694;23.346;2024-01-07T06:56:29;13.90;;;7.60;;
77287;SDS011;66345;42.694;23.346;2024-01-07T06:58:54;15.20;;;6.80;;
77287;SDS011;66345;42.694;23.346;2024-01-07T07:01:20;17.53;;;7.70;;
77287;SDS011;66345;42.694;23.346;2024-01-07T07:03:49;16.73;;;7.70;;
77287;SDS011;66345;42.694;23.346;2024-01-07T07:06:15;13.85;;;6.80;;
77287;SDS011;66345;42.694;23.346;2024-01-07T07:08:41;12.97;;;6.63;;
77287;SDS011;66345;42.694;23.346;2024-01-07T07:11:07;15.35;;;7.50;;
77287;SDS011;66345;42.694;23.346;2024-01-07T07:13:32;15.17;;;6.90;;
77287;SDS011;66345;42.694;23.346;2024-01-07T07:15:58;13.60;;;7.03;;
77287;SDS011;66345;42.694;23.346;2024-01-07T07:18:24;15.63;;;7.27;;
77287;SDS011;66345;42.694;23.346;2024-01-07T07:20:50;15.48;;;7.35;;
77287;SDS011;66345;42.694;23.346;2024-01-07T07:23:15;16.13;;;6.90;;
77287;SDS011;66345;42.694;23.346;2024-01-07T07:25:41;14.87;;;7.30;;
77287;SDS011;66345;42.694;23.346;2024-01-07T07:28:06;18.23;;;7.30;;
77287;SDS011;66345;42.694;23.346;2024-01-07T07:30:32;16.07;;;7.20;;
77287;SDS011;66345;42.694;23.346;2024-01-07T07:32:57;12.97;;;7.00;;
77287;SDS011;66345;42.694;23.346;2024-01-07T07:35:23;17.38;;;7.65;;
77287;SDS011;66345;42.694;23.346;2024-01-07T07:37:48;14.00;;;7.10;;
77287;SDS011;66345;42.694;23.346;2024-01-07T07:40:14;13.93;;;7.13;;
77287;SDS011;66345;42.694;23.346;2024-01-07T07:42:39;13.13;;;7.07;;
77287;SDS011;66345;42.694;23.346;2024-01-07T07:45:05;12.37;;;7.07;;
77287;SDS011;66345;42.694;23.346;2024-01-07T07:47:31;16.27;;;7.47;;
77287;SDS011;66345;42.694;23.346;2024-01-07T07:49:57;14.37;;;7.20;;
77287;SDS011;66345;42.694;23.346;2024-01-07T07:52:22;13.82;;;6.88;;
77287;SDS011;66345;42.694;23.346;2024-01-07T07:54:51;16.03;;;7.00;;
77287;SDS011;66345;42.694;23.346;2024-01-07T07:57:17;11.57;;;6.13;;
77287;SDS011;66345;42.694;23.346;2024-01-07T07:59:44;16.90;;;7.07;;
77287;SDS011;66345;42.694;23.346;2024-01-07T08:02:10;16.07;;;7.70;;
77287;SDS011;66345;42.694;23.346;2024-01-07T08:04:35;13.43;;;7.50;;
77287;SDS011;66345;42.694;23.346;2024-01-07T08:07:01;13.63;;;8.20;;
77287;SDS011;66345;42.694;23.346;2024-01-07T08:09:27;14.37;;;7.83;;
77287;SDS011;66345;42.694;23.346;2024-01-07T08:11:53;15.27;;;7.53;;
77287;SDS011;66345;42.694;23.346;2024-01-07T08:14:18;17.70;;;8.68;;
77287;SDS011;66345;42.694;23.346;2024-01-07T08:16:44;16.83;;;8.07;;
77287;SDS011;66345;42.694;23.346;2024-01-07T08:19:09;19.13;;;10.00;;
77287;SDS011;66345;42.694;23.346;2024-01-07T08:21:35;20.38;;;9.75;;
77287;SDS011;66345;42.694;23.346;2024-01-07T08:24:00;19.73;;;9.83;;
77287;SDS011;66345;42.694;23.346;2024-01-07T08:26:26;20.33;;;9.80;;
77287;SDS011;66345;42.694;23.346;2024-01-07T08:28:51;16.50;;;8.13;;
77287;SDS011;66345;42.694;23.346;2024-01-07T08:31:17;15.93;;;8.87;;
77287;SDS011;66345;42.694;23.346;2024-01-07T08:33:43;16.63;;;9.33;;
77287;SDS011;66345;42.694;23.346;2024-01-07T08:36:08;15.75;;;9.15;;
77287;SDS011;66345;42.694;23.346;2024-01-07T08:38:34;19.27;;;9.23;;
77287;SDS011;66345;42.694;23.346;2024-01-07T08:41:00;15.82;;;9.73;;
77287;SDS011;66345;42.694;23.346;2024-01-07T08:43:26;21.30;;;10.90;;
77287;SDS011;66345;42.694;23.346;2024-01-07T08:45:51;18.35;;;9.57;;
77287;SDS011;66345;42.694;23.346;2024-01-07T08:48:17;18.08;;;9.48;;
77287;SDS011;66345;42.694;23.346;2024-01-07T08:50:43;16.23;;;9.60;;
77287;SDS011;66345;42.694;23.346;2024-01-07T08:53:08;17.88;;;9.68;;
77287;SDS011;66345;42.694;23.346;2024-01-07T08:55:34;18.30;;;9.50;;
77287;SDS011;66345;42.694;23.346;2024-01-07T08:57:59;16.37;;;9.03;;
77287;SDS011;66345;42.694;23.346;2024-01-07T09:00:25;19.55;;;9.45;;
77287;SDS011;66345;42.694;23.346;2024-01-07T09:02:52;15.82;;;8.57;;
77287;SDS011;66345;42.694;23.346;2024-01-07T09:05:18;15.98;;;9.10;;
77287;SDS011;66345;42.694;23.346;2024-01-07T09:07:43;20.27;;;9.63;;
77287;SDS011;66345;42.694;23.346;2024-01-07T09:10:09;15.48;;;8.00;;
77287;SDS011;66345;42.694;23.346;2024-01-07T09:12:35;16.47;;;7.77;;
77287;SDS011;66345;42.694;23.346;2024-01-07T09:15:01;13.90;;;8.65;;
77287;SDS011;66345;42.694;23.346;2024-01-07T09:17:27;14.75;;;7.72;;
77287;SDS011;66345;42.694;23.346;2024-01-07T09:19:53;16.73;;;8.97;;
77287;SDS011;66345;42.694;23.346;2024-01-07T09:22:20;15.27;;;8.60;;
77287;SDS011;66345;42.694;23.346;2024-01-07T09:24:46;14.75;;;8.05;;
77287;SDS011;66345;42.694;23.346;2024-01-07T09:27:12;16.23;;;8.60;;
77287;SDS011;66345;42.694;23.346;2024-01-07T09:29:37;16.23;;;7.93;;
77287;SDS011;66345;42.694;23.346;2024-01-07T09:32:03;15.63;;;8.65;;
77287;SDS011;66345;42.694;23.346;2024-01-07T09:34:29;15.23;;;8.50;;
77287;SDS011;66345;42.694;23.346;2024-01-07T09:36:54;15.23;;;7.57;;
77287;SDS011;66345;42.694;23.346;2024-01-07T09:39:20;14.47;;;7.93;;
77287;SDS011;66345;42.694;23.346;2024-01-07T09:41:46;13.80;;;7.55;;
77287;SDS011;66345;42.694;23.346;2024-01-07T09:44:11;14.17;;;7.27;;
77287;SDS011;66345;42.694;23.346;2024-01-07T09:46:37;14.18;;;7.43;;
77287;SDS011;66345;42.694;23.346;2024-01-07T09:49:05;13.53;;;6.90;;
77287;SDS011;66345;42.694;23.346;2024-01-07T09:51:30;12.73;;;7.57;;
77287;SDS011;66345;42.694;23.346;2024-01-07T09:54:02;16.60;;;8.73;;
77287;SDS011;66345;42.694;23.346;2024-01-07T09:56:50;14.90;;;8.00;;
77287;SDS011;66345;42.694;23.346;2024-01-07T09:59:20;14.13;;;8.05;;
77287;SDS011;66345;42.694;23.346;2024-01-07T10:01:46;13.25;;;6.85;;
77287;SDS011;66345;42.694;23.346;2024-01-07T10:04:12;12.13;;;6.00;;
77287;SDS011;66345;42.694;23.346;2024-01-07T10:06:37;9.02;;;4.80;;
77287;SDS011;66345;42.694;23.346;2024-01-07T10:09:05;9.17;;;4.83;;
77287;SDS011;66345;42.694;23.346;2024-01-07T10:11:32;7.93;;;4.22;;
77287;SDS011;66345;42.694;23.346;2024-01-07T10:13:58;8.07;;;4.40;;
77287;SDS011;66345;42.694;23.346;2024-01-07T10:16:23;8.30;;;4.60;;
77287;SDS011;66345;42.694;23.346;2024-01-07T10:18:49;7.97;;;4.10;;
77287;SDS011;66345;42.694;23.346;2024-01-07T10:21:14;8.95;;;3.80;;
77287;SDS011;66345;42.694;23.346;2024-01-07T10:23:40;8.83;;;4.10;;
77287;SDS011;66345;42.694;23.346;2024-01-07T10:26:06;8.27;;;4.07;;
77287;SDS011;66345;42.694;23.346;2024-01-07T10:28:32;6.90;;;3.33;;
77287;SDS011;66345;42.694;23.346;2024-01-07T10:30:57;7.05;;;3.45;;
77287;SDS011;66345;42.694;23.346;2024-01-07T10:33:23;6.83;;;3.13;;
77287;SDS011;66345;42.694;23.346;2024-01-07T10:35:52;9.35;;;3.60;;
77287;SDS011;66345;42.694;23.346;2024-01-07T10:38:41;7.97;;;3.87;;
77287;SDS011;66345;42.694;23.346;2024-01-07T10:41:09;8.85;;;3.70;;
77287;SDS011;66345;42.694;23.346;2024-01-07T10:43:36;8.30;;;4.25;;
77287;SDS011;66345;42.694;23.346;2024-01-07T10:46:04;7.60;;;4.05;;
77287;SDS011;66345;42.694;23.346;2024-01-07T10:48:30;10.35;;;4.25;;
77287;SDS011;66345;42.694;23.346;2024-01-07T10:51:00;11.77;;;4.75;;
77287;SDS011;66345;42.694;23.346;2024-01-07T10:53:27;8.75;;;4.60;;
77287;SDS011;66345;42.694;23.346;2024-01-07T10:56:00;9.93;;;4.90;;
77287;SDS011;66345;42.694;23.346;2024-01-07T10:58:30;8.70;;;4.40;;
77287;SDS011;66345;42.694;23.346;2024-01-07T11:01:01;7.88;;;4.20;;
77287;SDS011;66345;42.694;23.346;2024-01-07T11:06:22;7.03;;;2.92;;
77287;SDS011;66345;42.694;23.346;2024-01-07T11:08:58;7.43;;;3.60;;
77287;SDS011;66345;42.694;23.346;2024-01-07T11:11:35;8.23;;;3.97;;
77287;SDS011;66345;42.694;23.346;2024-01-07T11:14:03;8.88;;;3.90;;
77287;SDS011;66345;42.694;23.346;2024-01-07T11:19:04;10.18;;;4.70;;
77287;SDS011;66345;42.694;23.346;2024-01-07T11:21:29;10.90;;;4.60;;
77287;SDS011;66345;42.694;23.346;2024-01-07T11:23:55;6.88;;;3.83;;
77287;SDS011;66345;42.694;23.346;2024-01-07T11:26:21;7.90;;;3.53;;
77287;SDS011;66345;42.694;23.346;2024-01-07T11:28:48;8.03;;;3.43;;
77287;SDS011;66345;42.694;23.346;2024-01-07T11:31:18;9.00;;;3.00;;
77287;SDS011;66345;42.694;23.346;2024-01-07T11:33:46;9.75;;;3.55;;
77287;SDS011;66345;42.694;23.346;2024-01-07T11:36:14;7.67;;;3.37;;
77287;SDS011;66345;42.694;23.346;2024-01-07T11:38:44;8.10;;;3.70;;
77287;SDS011;66345;42.694;23.346;2024-01-07T11:41:14;8.75;;;3.35;;
77287;SDS011;66345;42.694;23.346;2024-01-07T11:43:56;11.40;;;3.10;;
77287;SDS011;66345;42.694;23.346;2024-01-07T11:46:24;7.70;;;2.67;;
77287;SDS011;66345;42.694;23.346;2024-01-07T11:48:52;6.13;;;2.60;;
77287;SDS011;66345;42.694;23.346;2024-01-07T11:51:30;6.28;;;2.47;;
77287;SDS011;66345;42.694;23.346;2024-01-07T11:53:57;6.18;;;2.13;;
77287;SDS011;66345;42.694;23.346;2024-01-07T11:56:26;6.30;;;1.88;;
77287;SDS011;66345;42.694;23.346;2024-01-07T11:58:52;4.93;;;1.80;;
77287;SDS011;66345;42.694;23.346;2024-01-07T12:01:18;5.53;;;1.90;;
77287;SDS011;66345;42.694;23.346;2024-01-07T12:03:44;5.13;;;2.33;;
77287;SDS011;66345;42.694;23.346;2024-01-07T12:06:10;6.33;;;2.20;;
77287;SDS011;66345;42.694;23.346;2024-01-07T12:08:42;6.63;;;2.28;;
77287;SDS011;66345;42.694;23.346;2024-01-07T12:11:08;6.28;;;1.83;;
77287;SDS011;66345;42.694;23.346;2024-01-07T12:13:40;6.03;;;1.90;;
77287;SDS011;66345;42.694;23.346;2024-01-07T12:16:06;5.00;;;2.20;;
77287;SDS011;66345;42.694;23.346;2024-01-07T12:18:33;4.77;;;2.50;;
77287;SDS011;66345;42.694;23.346;2024-01-07T12:21:01;8.95;;;2.30;;
77287;SDS011;66345;42.694;23.346;2024-01-07T12:23:26;6.25;;;2.40;;
77287;SDS011;66345;42.694;23.346;2024-01-07T12:25:52;7.13;;;2.35;;
77287;SDS011;66345;42.694;23.346;2024-01-07T12:28:18;5.97;;;2.67;;
77287;SDS011;66345;42.694;23.346;2024-01-07T12:30:44;6.83;;;2.67;;
77287;SDS011;66345;42.694;23.346;2024-01-07T12:33:10;7.45;;;2.47;;
77287;SDS011;66345;42.694;23.346;2024-01-07T12:35:36;5.07;;;2.50;;
77287;SDS011;66345;42.694;23.346;2024-01-07T12:38:02;7.20;;;2.80;;
77287;SDS011;66345;42.694;23.346;2024-01-07T12:40:29;6.50;;;2.20;;
77287;SDS011;66345;42.694;23.346;2024-01-07T12:42:55;7.70;;;2.50;;
77287;SDS011;66345;42.694;23.346;2024-01-07T12:45:22;5.28;;;2.38;;
77287;SDS011;66345;42.694;23.346;2024-01-07T12:47:48;11.23;;;3.20;;
77287;SDS011;66345;42.694;23.346;2024-01-07T12:50:13;7.10;;;3.20;;
77287;SDS011;66345;42.694;23.346;2024-01-07T12:52:40;7.35;;;3.40;;
77287;SDS011;66345;42.694;23.346;2024-01-07T12:55:06;8.80;;;3.13;;
77287;SDS011;66345;42.694;23.346;2024-01-07T12:57:32;11.63;;;3.53;;
77287;SDS011;66345;42.694;23.346;2024-01-07T12:59:59;6.10;;;3.10;;
77287;SDS011;66345;42.694;23.346;2024-01-07T13:02:25;6.80;;;2.95;;
77287;SDS011;66345;42.694;23.346;2024-01-07T13:04:51;15.67;;;3.40;;
77287;SDS011;66345;42.694;23.346;2024-01-07T13:07:16;10.35;;;3.30;;
77287;SDS011;66345;42.694;23.346;2024-01-07T13:09:42;7.77;;;3.00;;
77287;SDS011;66345;42.694;23.346;2024-01-07T13:12:09;7.05;;;3.40;;
77287;SDS011;66345;42.694;23.346;2024-01-07T13:14:36;10.60;;;3.92;;
77287;SDS011;66345;42.694;23.346;2024-01-07T13:17:01;8.07;;;3.37;;
77287;SDS011;66345;42.694;23.346;2024-01-07T13:19:28;14.95;;;3.90;;
77287;SDS011;66345;42.694;23.346;2024-01-07T13:21:53;9.02;;;3.70;;
77287;SDS011;66345;42.694;23.346;2024-01-07T13:24:24;12.90;;;3.63;;
77287;SDS011;66345;42.694;23.346;2024-01-07T13:26:50;13.93;;;3.55;;
77287;SDS011;66345;42.694;23.346;2024-01-07T13:29:15;10.03;;;3.33;;
77287;SDS011;66345;42.694;23.346;2024-01-07T13:31:41;8.60;;;2.90;;
77287;SDS011;66345;42.694;23.346;2024-01-07T13:34:06;10.75;;;3.13;;
77287;SDS011;66345;42.694;23.346;2024-01-07T13:36:33;7.68;;;3.38;;
77287;SDS011;66345;42.694;23.346;2024-01-07T13:38:59;9.30;;;3.27;;
77287;SDS011;66345;42.694;23.346;2024-01-07T13:41:24;7.73;;;3.07;;
77287;SDS011;66345;42.694;23.346;2024-01-07T13:43:55;8.63;;;3.25;;
77287;SDS011;66345;42.694;23.346;2024-01-07T13:46:21;7.95;;;3.70;;
77287;SDS011;66345;42.694;23.346;2024-01-07T13:48:48;12.15;;;4.05;;
77287;SDS011;66345;42.694;23.346;2024-01-07T13:51:14;8.17;;;3.63;;
77287;SDS011;66345;42.694;23.346;2024-01-07T13:53:39;8.15;;;3.42;;
77287;SDS011;66345;42.694;23.346;2024-01-07T13:56:05;9.77;;;3.50;;
77287;SDS011;66345;42.694;23.346;2024-01-07T13:58:34;9.68;;;3.72;;
77287;SDS011;66345;42.694;23.346;2024-01-07T14:01:00;10.33;;;3.80;;
77287;SDS011;66345;42.694;23.346;2024-01-07T14:03:25;9.93;;;3.83;;
77287;SDS011;66345;42.694;23.346;2024-01-07T14:05:51;11.38;;;4.20;;
77287;SDS011;66345;42.694;23.346;2024-01-07T14:08:17;12.10;;;4.13;;
77287;SDS011;66345;42.694;23.346;2024-01-07T14:10:42;10.85;;;4.15;;
77287;SDS011;66345;42.694;23.346;2024-01-07T14:13:08;10.30;;;3.90;;
77287;SDS011;66345;42.694;23.346;2024-01-07T14:15:34;14.77;;;4.90;;
77287;SDS011;66345;42.694;23.346;2024-01-07T14:17:59;12.27;;;4.20;;
77287;SDS011;66345;42.694;23.346;2024-01-07T14:20:25;8.68;;;4.10;;